Time;durP1;ratioP1;P1;durP2;ratioP2;P2;SDS_P1;SDS_P2;PMS_P1;PMS_P2;Temp;Humidity;BMP_temperature;BMP_pressure;BME280_temperature;BME280_humidity;BME280_pressure;Samples;Min_cycle;Max_cycle;Signal;HPM_P1;HPM_P2
2022/06/18 00:02:57;;;;;;;16.73;9.13;;;23.20;99.90;;;;;;5032802;28;20511;-68
2022/06/18 00:06:01;;;;;;;10.52;7.88;;;23.20;99.90;;;;;;5032977;28;20076;-69
2022/06/18 00:09:05;;;;;;;13.43;8.52;;;23.20;99.90;;;;;;5032795;28;20049;-69
2022/06/18 00:15:41;;;;;;;13.43;8.63;;;22.90;99.90;;;;;;5032603;28;20582;-69
2022/06/18 00:18:45;;;;;;;12.73;9.57;;;22.80;99.90;;;;;;5032508;28;20056;-69
2022/06/18 00:21:52;;;;;;;12.98;8.90;;;22.70;99.90;;;;;;5032789;28;20044;-69
2022/06/18 00:24:57;;;;;;;12.60;8.88;;;22.60;99.90;;;;;;5032825;28;20044;-69
2022/06/18 00:28:02;;;;;;;11.95;8.73;;;22.60;99.90;;;;;;5031800;28;20057;-68
2022/06/18 00:31:06;;;;;;;10.50;8.80;;;22.50;99.90;;;;;;5032335;28;20507;-68
2022/06/18 00:34:10;;;;;;;11.48;8.52;;;22.40;99.90;;;;;;5030980;28;20392;-68
2022/06/18 00:37:19;;;;;;;12.52;8.77;;;22.30;99.90;;;;;;5031245;28;20044;-68
2022/06/18 00:40:29;;;;;;;9.80;8.52;;;22.20;99.90;;;;;;5031940;28;20396;-68
2022/06/18 00:43:36;;;;;;;11.13;8.13;;;22.20;99.90;;;;;;5032107;28;20052;-68
2022/06/18 00:47:16;;;;;;;14.88;8.77;;;22.10;99.90;;;;;;5041596;28;20048;-69
2022/06/18 00:50:47;;;;;;;10.43;8.73;;;21.90;99.90;;;;;;5031949;28;20519;-68
2022/06/18 00:54:21;;;;;;;12.60;9.07;;;21.80;99.90;;;;;;5032144;28;20056;-68
2022/06/18 00:57:40;;;;;;;18.38;9.93;;;21.60;99.90;;;;;;5031615;28;20064;-69
2022/06/18 01:00:46;;;;;;;14.02;9.70;;;21.50;99.90;;;;;;5032023;28;20056;-68
2022/06/18 01:03:50;;;;;;;13.43;9.05;;;21.50;99.90;;;;;;5032119;28;20060;-69
2022/06/18 01:07:06;;;;;;;11.50;8.98;;;21.60;99.90;;;;;;5030513;28;20045;-68
2022/06/18 01:10:21;;;;;;;13.55;9.00;;;21.50;99.90;;;;;;5030460;28;20045;-69
2022/06/18 01:13:34;;;;;;;13.65;9.15;;;21.50;99.90;;;;;;5042228;28;20052;-69
2022/06/18 01:16:38;;;;;;;12.48;9.25;;;21.50;99.90;;;;;;5029761;28;20066;-68
2022/06/18 01:19:48;;;;;;;13.90;9.32;;;21.40;99.90;;;;;;5042029;28;20044;-68
2022/06/18 01:23:19;;;;;;;12.35;8.57;;;21.40;99.90;;;;;;5031602;28;20364;-69
2022/06/18 01:26:23;;;;;;;14.30;9.38;;;21.50;99.90;;;;;;5029480;28;20059;-68
2022/06/18 01:29:27;;;;;;;14.25;9.18;;;21.60;99.90;;;;;;5041632;28;20381;-68
2022/06/18 01:32:32;;;;;;;13.07;8.63;;;21.60;99.90;;;;;;5031435;28;20056;-68
2022/06/18 01:35:41;;;;;;;11.93;8.82;;;21.60;99.90;;;;;;5019004;28;20052;-68
2022/06/18 01:38:50;;;;;;;10.68;8.40;;;21.50;99.90;;;;;;5030522;28;20040;-68
2022/06/18 01:42:04;;;;;;;14.07;8.20;;;21.50;99.90;;;;;;5030327;28;20045;-68
2022/06/18 01:45:22;;;;;;;13.35;9.13;;;21.50;99.90;;;;;;5030266;28;20395;-68
2022/06/18 01:48:36;;;;;;;15.88;8.75;;;21.50;99.90;;;;;;5030017;28;20526;-69
2022/06/18 01:51:47;;;;;;;13.73;9.60;;;21.50;99.90;;;;;;5030002;28;20048;-68
2022/06/18 01:54:55;;;;;;;13.85;8.57;;;21.40;99.90;;;;;;5029970;28;20049;-69
2022/06/18 01:58:15;;;;;;;13.45;9.32;;;21.30;99.90;;;;;;5029497;28;20049;-68
2022/06/18 02:01:24;;;;;;;14.02;8.93;;;21.20;99.90;;;;;;5030152;28;20044;-68
2022/06/18 02:04:29;;;;;;;14.40;8.60;;;21.20;99.90;;;;;;5030082;28;20044;-69
2022/06/18 02:07:34;;;;;;;17.33;10.93;;;21.10;99.90;;;;;;5029289;28;20395;-68
2022/06/18 02:10:57;;;;;;;12.88;10.65;;;21.00;99.90;;;;;;5031014;28;20447;-68
2022/06/18 02:14:07;;;;;;;13.18;10.02;;;21.00;99.90;;;;;;5030082;28;20515;-68
2022/06/18 02:17:17;;;;;;;17.55;12.35;;;20.90;99.90;;;;;;5029894;28;20068;-68
2022/06/18 02:20:26;;;;;;;16.63;11.52;;;20.70;99.90;;;;;;5029755;28;20673;-69
2022/06/18 02:23:31;;;;;;;14.35;11.07;;;20.60;99.90;;;;;;5030168;28;20605;-68
2022/06/18 02:26:40;;;;;;;18.05;11.55;;;20.60;99.90;;;;;;5029850;28;20053;-68
2022/06/18 02:29:46;;;;;;;18.15;12.07;;;20.50;99.90;;;;;;5030066;28;20048;-68
2022/06/18 02:33:10;;;;;;;18.50;13.52;;;20.40;99.90;;;;;;5029797;28;20115;-68
2022/06/18 02:36:19;;;;;;;17.73;12.65;;;20.40;99.90;;;;;;5029074;28;20044;-68
2022/06/18 02:39:32;;;;;;;;;;;20.40;99.90;;;;;;5031152;28;20048;-69
2022/06/18 02:42:38;;;;;;;21.42;11.52;;;20.50;99.90;;;;;;5029472;28;19916;-68
2022/06/18 02:45:49;;;;;;;14.70;10.15;;;20.50;99.90;;;;;;5029994;28;20049;-68
2022/06/18 02:48:53;;;;;;;12.50;7.75;;;20.50;99.90;;;;;;5030284;28;20052;-68
2022/06/18 02:51:57;;;;;;;11.13;7.18;;;20.50;99.90;;;;;;5030905;28;20036;-68
2022/06/18 02:55:32;;;;;;;15.18;7.57;;;20.60;99.90;;;;;;5034291;28;20056;-68
2022/06/18 02:58:40;;;;;;;10.95;7.40;;;20.70;99.90;;;;;;5033559;28;20052;-68
2022/06/18 03:01:46;;;;;;;9.32;6.72;;;20.80;99.90;;;;;;5033951;28;20052;-68
2022/06/18 03:04:51;;;;;;;11.60;6.80;;;20.70;99.90;;;;;;5034552;28;20052;-69
2022/06/18 03:07:55;;;;;;;7.85;6.93;;;20.80;99.90;;;;;;5033887;28;20052;-69
2022/06/18 03:14:22;;;;;;;14.48;7.68;;;20.70;99.90;;;;;;5033992;28;20060;-68
2022/06/18 03:17:25;;;;;;;9.82;7.43;;;20.70;99.90;;;;;;5031992;28;20056;-68
2022/06/18 03:20:55;;;;;;;10.52;8.23;;;20.60;99.90;;;;;;5032638;28;20045;-68
2022/06/18 03:23:58;;;;;;;11.43;7.32;;;20.70;99.90;;;;;;5032613;28;20048;-68
2022/06/18 03:27:03;;;;;;;9.38;7.78;;;20.60;99.90;;;;;;5031837;28;20049;-68
2022/06/18 03:30:08;;;;;;;9.93;8.35;;;20.50;99.90;;;;;;5032678;28;20067;-68
2022/06/18 03:33:13;;;;;;;10.07;7.97;;;20.40;99.90;;;;;;5033169;28;20044;-69
2022/06/18 03:36:19;;;;;;;11.05;8.27;;;20.30;99.90;;;;;;5031852;28;20380;-68
2022/06/18 03:39:25;;;;;;;12.23;8.60;;;20.20;99.90;;;;;;5032359;28;20084;-69
2022/06/18 03:42:30;;;;;;;16.25;9.02;;;20.20;99.90;;;;;;5032277;28;20049;-68
2022/06/18 03:45:41;;;;;;;13.45;7.30;;;20.20;99.90;;;;;;5032436;28;20052;-69
2022/06/18 03:48:57;;;;;;;11.75;6.45;;;20.30;99.90;;;;;;5032261;28;20048;-68
2022/06/18 03:52:07;;;;;;;11.65;6.60;;;20.30;99.90;;;;;;5032412;28;20396;-68
2022/06/18 03:55:13;;;;;;;10.50;6.18;;;20.50;99.90;;;;;;5043920;28;20052;-69
2022/06/18 03:58:21;;;;;;;11.27;6.30;;;20.60;99.90;;;;;;5043578;28;20052;-69
2022/06/18 04:01:32;;;;;;;8.43;5.85;;;20.60;99.90;;;;;;5021089;28;20052;-68
2022/06/18 04:04:40;;;;;;;13.85;7.18;;;20.70;99.90;;;;;;5032284;28;20503;-68
2022/06/18 04:07:44;;;;;;;10.13;6.65;;;20.80;99.90;;;;;;5029988;28;20048;-68
2022/06/18 04:11:05;;;;;;;10.43;6.78;;;20.90;99.90;;;;;;5032123;28;20048;-68
2022/06/18 04:14:09;;;;;;;12.23;7.50;;;21.00;99.90;;;;;;5031973;28;20056;-69
2022/06/18 04:17:33;;;;;;;10.85;6.65;;;21.10;99.90;;;;;;5043127;28;20048;-69
2022/06/18 04:20:37;;;;;;;11.35;6.00;;;21.20;99.90;;;;;;5031827;28;20048;-68
2022/06/18 04:23:45;;;;;;;7.90;5.88;;;21.30;99.90;;;;;;5031322;28;20048;-69
2022/06/18 04:26:50;;;;;;;11.63;6.57;;;21.40;99.90;;;;;;5030767;28;20061;-68
2022/06/18 04:29:54;;;;;;;12.32;7.20;;;21.80;99.90;;;;;;5031416;28;20056;-68
2022/06/18 04:33:04;;;;;;;11.18;6.93;;;22.80;99.90;;;;;;5031127;28;20076;-69
2022/06/18 04:36:38;;;;;;;9.48;6.28;;;24.20;99.90;;;;;;5030575;28;20044;-68
2022/06/18 04:40:14;;;;;;;11.30;6.30;;;25.90;99.90;;;;;;5031341;28;20392;-69
2022/06/18 04:43:43;;;;;;;9.20;4.88;;;27.20;99.90;;;;;;5031325;28;20056;-69
2022/06/18 04:46:49;;;;;;;7.55;5.38;;;28.20;98.30;;;;;;5030833;28;20060;-68
2022/06/18 04:49:54;;;;;;;10.05;6.30;;;28.80;96.50;;;;;;5032040;28;20068;-69
2022/06/18 04:52:58;;;;;;;16.83;7.05;;;28.80;97.10;;;;;;5031367;28;20049;-69
2022/06/18 04:56:02;;;;;;;66.32;10.23;;;29.40;97.00;;;;;;5042031;28;20052;-69
2022/06/18 04:59:11;;;;;;;39.88;8.73;;;30.00;95.40;;;;;;5031204;28;20388;-69
2022/06/18 05:02:23;;;;;;;54.45;8.27;;;30.20;94.90;;;;;;5042375;28;20046;-69
2022/06/18 05:05:36;;;;;;;44.35;7.25;;;30.30;94.10;;;;;;5031925;28;20048;-69
2022/06/18 05:08:59;;;;;;;33.97;6.65;;;30.60;94.00;;;;;;5031500;28;20064;-69
2022/06/18 05:12:26;;;;;;;42.58;8.00;;;31.20;93.70;;;;;;5033273;28;20052;-69
2022/06/18 05:15:58;;;;;;;31.60;7.50;;;31.20;93.10;;;;;;5029209;28;20048;-69
2022/06/18 05:19:03;;;;;;;10.27;4.80;;;31.60;93.40;;;;;;5030998;28;20044;-69
2022/06/18 05:22:09;;;;;;;10.60;4.53;;;31.80;93.50;;;;;;5030683;28;20062;-69
2022/06/18 05:25:14;;;;;;;9.07;4.32;;;32.30;92.70;;;;;;5030087;28;20052;-69
2022/06/18 05:28:18;;;;;;;9.65;4.20;;;33.00;91.40;;;;;;5041694;28;20048;-69
2022/06/18 05:31:23;;;;;;;8.90;4.97;;;33.40;90.00;;;;;;5030352;28;20040;-70
2022/06/18 05:34:27;;;;;;;9.68;5.18;;;32.60;91.00;;;;;;5041866;28;20045;-69
2022/06/18 05:37:33;;;;;;;8.10;5.03;;;32.70;91.00;;;;;;5030341;28;20048;-69
2022/06/18 05:40:38;;;;;;;8.82;5.50;;;31.40;90.70;;;;;;5041955;28;20060;-69
2022/06/18 05:43:42;;;;;;;6.13;4.88;;;30.70;92.40;;;;;;5031098;28;20044;-69
2022/06/18 05:46:46;;;;;;;6.43;4.70;;;30.50;92.90;;;;;;5029590;28;20056;-69
2022/06/18 05:49:56;;;;;;;5.22;3.42;;;31.60;91.60;;;;;;5031202;28;20411;-70
2022/06/18 05:53:00;;;;;;;15.38;5.32;;;32.40;90.20;;;;;;5030042;28;20048;-69
2022/06/18 05:56:24;;;;;;;8.27;4.28;;;31.30;90.30;;;;;;5030003;28;20048;-69
2022/06/18 05:59:49;;;;;;;12.68;4.85;;;30.60;90.00;;;;;;5020848;28;20060;-70
2022/06/18 06:02:54;;;;;;;10.50;4.63;;;31.70;89.10;;;;;;5029945;28;20483;-69
2022/06/18 06:05:58;;;;;;;7.28;4.55;;;31.60;90.00;;;;;;5029986;28;20044;-69
2022/06/18 06:09:03;;;;;;;6.60;4.35;;;30.80;89.70;;;;;;5030270;28;20065;-69
2022/06/18 06:12:12;;;;;;;9.93;4.88;;;30.00;87.40;;;;;;5030991;28;20056;-69
2022/06/18 06:15:16;;;;;;;7.00;5.20;;;30.00;90.00;;;;;;5041465;28;20048;-69
2022/06/18 06:18:22;;;;;;;8.13;4.82;;;28.60;91.80;;;;;;5029723;28;20099;-69
2022/06/18 06:21:26;;;;;;;5.65;4.22;;;29.00;91.60;;;;;;5030992;28;20113;-70
2022/06/18 06:24:30;;;;;;;9.13;4.03;;;29.10;91.20;;;;;;5031040;28;20060;-69
2022/06/18 06:27:34;;;;;;;7.10;4.38;;;30.20;90.00;;;;;;5031883;28;20048;-70
2022/06/18 06:30:38;;;;;;;8.45;4.07;;;30.00;90.30;;;;;;5035059;28;20060;-69
2022/06/18 06:33:42;;;;;;;5.50;3.55;;;31.00;89.20;;;;;;5034800;28;20048;-70
2022/06/18 06:36:46;;;;;;;5.35;3.90;;;31.80;87.20;;;;;;5034078;28;20053;-69
2022/06/18 06:39:50;;;;;;;5.68;3.70;;;31.70;86.70;;;;;;5034815;28;20094;-69
2022/06/18 06:42:58;;;;;;;5.07;3.70;;;32.10;85.70;;;;;;5034906;28;20049;-70
2022/06/18 06:46:02;;;;;;;9.57;4.00;;;32.20;85.30;;;;;;5033787;28;20053;-70
2022/06/18 06:49:08;;;;;;;13.43;3.38;;;33.00;83.10;;;;;;5034543;28;20040;-69
2022/06/18 06:52:13;;;;;;;5.53;3.53;;;33.60;82.40;;;;;;5034261;28;20527;-69
2022/06/18 06:58:49;;;;;;;10.70;4.32;;;33.50;83.80;;;;;;5034253;28;20056;-69
2022/06/18 07:01:53;;;;;;;6.10;3.83;;;31.80;82.80;;;;;;5034168;28;20479;-70
2022/06/18 07:04:57;;;;;;;9.18;3.72;;;31.00;84.70;;;;;;5033777;28;20044;-69
2022/06/18 07:08:02;;;;;;;5.85;3.80;;;31.20;86.00;;;;;;5033284;28;20741;-69
2022/06/18 07:11:06;;;;;;;5.95;3.60;;;32.40;83.60;;;;;;5033697;28;20056;-69
2022/06/18 07:14:10;;;;;;;5.72;3.72;;;32.40;82.80;;;;;;5033731;28;20036;-69
2022/06/18 07:17:19;;;;;;;5.45;3.22;;;32.70;83.10;;;;;;5032960;28;20399;-69
2022/06/18 07:20:24;;;;;;;6.20;3.28;;;32.50;81.10;;;;;;5033697;28;20731;-70
2022/06/18 07:23:29;;;;;;;5.97;3.00;;;33.20;80.10;;;;;;5033503;28;20049;-70
2022/06/18 07:26:33;;;;;;;6.68;4.20;;;33.50;80.10;;;;;;5032304;28;20048;-69
2022/06/18 07:29:38;;;;;;;7.38;4.18;;;32.40;82.30;;;;;;5033439;28;20053;-70
2022/06/18 07:32:46;;;;;;;5.35;4.35;;;30.90;86.20;;;;;;5033687;28;20051;-69
2022/06/18 07:35:53;;;;;;;7.73;3.93;;;29.70;87.70;;;;;;5033421;28;20045;-69
2022/06/18 07:38:57;;;;;;;9.48;3.90;;;30.50;86.10;;;;;;5033029;28;20271;-70
2022/06/18 07:42:02;;;;;;;7.97;3.90;;;31.10;85.70;;;;;;5033298;28;20048;-70
2022/06/18 07:45:23;;;;;;;7.00;3.58;;;31.90;83.40;;;;;;5032827;28;20056;-70
2022/06/18 07:48:27;;;;;;;5.57;3.30;;;33.20;82.30;;;;;;5033005;28;20487;-69
2022/06/18 07:51:31;;;;;;;6.47;3.97;;;34.30;80.50;;;;;;5033018;28;20591;-70
2022/06/18 07:54:35;;;;;;;8.85;3.22;;;32.20;80.30;;;;;;5033317;28;20036;-69
2022/06/18 07:57:39;;;;;;;7.30;3.05;;;33.40;79.10;;;;;;5031924;28;20040;-70
2022/06/18 08:00:44;;;;;;;7.88;3.30;;;33.10;79.70;;;;;;5033215;28;20045;-69
2022/06/18 08:03:48;;;;;;;8.23;2.95;;;34.10;79.20;;;;;;5033224;28;20045;-70
2022/06/18 08:06:52;;;;;;;10.50;3.33;;;35.20;76.90;;;;;;5032431;28;20048;-70
2022/06/18 08:09:55;;;;;;;6.65;2.60;;;36.20;75.50;;;;;;5032856;28;20061;-70
2022/06/18 08:13:00;;;;;;;5.47;3.05;;;36.80;72.90;;;;;;5031950;28;20056;-70
2022/06/18 08:16:05;;;;;;;8.73;2.70;;;38.30;71.10;;;;;;5019090;28;20056;-71
2022/06/18 08:19:10;;;;;;;4.53;2.85;;;39.00;70.30;;;;;;5031733;28;20048;-70
2022/06/18 08:22:15;;;;;;;5.47;2.40;;;37.10;70.90;;;;;;5031389;28;20048;-70
2022/06/18 08:25:20;;;;;;;3.80;2.80;;;39.00;70.40;;;;;;5031210;28;20432;-70
2022/06/18 08:28:24;;;;;;;4.22;2.80;;;38.10;69.30;;;;;;5031138;28;20052;-70
2022/06/18 08:31:28;;;;;;;4.53;2.80;;;36.50;71.50;;;;;;5031385;28;20048;-70
2022/06/18 08:34:33;;;;;;;2.90;2.30;;;38.40;69.90;;;;;;5031478;28;20339;-70
2022/06/18 08:37:38;;;;;;;5.45;2.50;;;36.40;71.40;;;;;;5030296;28;20041;-70
2022/06/18 08:41:12;;;;;;;5.15;2.53;;;37.50;71.30;;;;;;5031323;28;20033;-71
2022/06/18 08:44:28;;;;;;;4.10;2.30;;;35.30;71.90;;;;;;5031963;28;20057;-70
2022/06/18 08:48:09;;;;;;;6.18;2.90;;;37.10;72.40;;;;;;5031575;28;20057;-70
2022/06/18 08:51:35;;;;;;;7.68;2.30;;;38.30;69.70;;;;;;5030764;28;20056;-70
2022/06/18 08:54:57;;;;;;;6.47;2.30;;;39.70;68.50;;;;;;5031645;28;20044;-71
2022/06/18 08:58:20;;;;;;;7.43;2.90;;;40.40;68.70;;;;;;5030956;28;20056;-70
2022/06/18 09:01:38;;;;;;;7.88;2.47;;;39.20;68.10;;;;;;5031547;28;20488;-70
2022/06/18 09:05:19;;;;;;;4.18;2.33;;;40.10;66.10;;;;;;5031696;28;20049;-70
2022/06/18 09:08:47;;;;;;;6.03;2.60;;;41.00;65.30;;;;;;5031261;28;20048;-70
2022/06/18 09:12:06;;;;;;;3.88;2.15;;;40.10;66.20;;;;;;5030558;28;20521;-71
2022/06/18 09:15:22;;;;;;;8.55;2.47;;;42.40;63.60;;;;;;5031930;28;20087;-70
2022/06/18 09:18:35;;;;;;;5.88;2.28;;;42.90;62.00;;;;;;5030380;28;20044;-71
2022/06/18 09:22:00;;;;;;;4.30;2.40;;;37.40;66.20;;;;;;5031439;28;20040;-70
2022/06/18 09:25:16;;;;;;;10.10;2.65;;;38.10;67.50;;;;;;5031828;28;20044;-70
2022/06/18 09:28:35;;;;;;;7.00;2.25;;;38.80;64.80;;;;;;5030957;28;20054;-71
2022/06/18 09:32:10;;;;;;;4.88;2.00;;;41.40;64.50;;;;;;5030526;28;20052;-70
2022/06/18 09:35:28;;;;;;;4.20;2.08;;;45.00;62.80;;;;;;5029820;28;20530;-70
2022/06/18 09:38:43;;;;;;;6.75;1.92;;;46.30;60.30;;;;;;5030311;28;20072;-70
2022/06/18 09:42:30;;;;;;;4.25;2.30;;;45.10;60.00;;;;;;5030300;28;20037;-71
2022/06/18 09:45:44;;;;;;;5.60;2.00;;;43.40;61.40;;;;;;5030413;28;20041;-70
2022/06/18 09:48:49;;;;;;;3.05;1.92;;;42.50;61.30;;;;;;5030184;28;20499;-71
2022/06/18 09:52:08;;;;;;;4.63;2.30;;;44.30;60.10;;;;;;5029980;28;20506;-71
2022/06/18 09:55:32;;;;;;;3.75;2.20;;;45.60;59.60;;;;;;5030250;28;20049;-70
2022/06/18 09:58:48;;;;;;;4.82;1.80;;;46.40;58.90;;;;;;5029932;28;20044;-71
2022/06/18 10:01:53;;;;;;;3.08;1.65;;;44.10;57.30;;;;;;5029924;28;20056;-71
2022/06/18 10:08:24;;;;;;;5.30;1.80;;;43.70;58.10;;;;;;5028892;28;20531;-71
2022/06/18 10:11:29;;;;;;;2.38;1.65;;;45.50;58.80;;;;;;5028775;28;20166;-71
2022/06/18 10:14:33;;;;;;;10.68;2.30;;;44.50;58.20;;;;;;5030757;28;20041;-70
2022/06/18 10:17:58;;;;;;;3.90;1.70;;;41.70;58.00;;;;;;5029697;28;20044;-70
2022/06/18 10:21:17;;;;;;;4.72;1.80;;;41.70;58.90;;;;;;5030899;28;20045;-70
2022/06/18 10:24:40;;;;;;;17.33;2.00;;;39.90;59.20;;;;;;5030834;28;20059;-70
2022/06/18 10:28:05;;;;;;;2.85;2.08;;;40.70;59.80;;;;;;5029988;28;20049;-71
2022/06/18 10:31:31;;;;;;;8.45;2.38;;;40.90;59.40;;;;;;5031085;28;20361;-71
2022/06/18 10:35:21;;;;;;;2.83;1.90;;;41.80;60.60;;;;;;5031219;28;20843;-70
2022/06/18 10:38:39;;;;;;;3.85;1.90;;;44.50;58.30;;;;;;5029608;28;20045;-71
2022/06/18 10:42:09;;;;;;;3.28;2.15;;;45.40;57.80;;;;;;5030743;28;20483;-70
2022/06/18 10:45:33;;;;;;;;;;;41.40;58.80;;;;;;5031211;28;20049;-71
2022/06/18 10:48:46;;;;;;;5.72;1.80;;;42.50;59.80;;;;;;5030663;28;19909;-68
2022/06/18 10:51:50;;;;;;;5.70;2.38;;;43.60;57.80;;;;;;5030122;28;20049;-68
2022/06/18 10:55:24;;;;;;;3.50;1.67;;;44.50;58.60;;;;;;5030283;28;20048;-69
2022/06/18 10:58:29;;;;;;;4.78;1.80;;;45.20;57.20;;;;;;5030169;28;20522;-69
2022/06/18 11:01:42;;;;;;;4.03;1.80;;;46.10;57.10;;;;;;5030447;28;20052;-70
2022/06/18 11:05:03;;;;;;;5.53;2.10;;;46.50;56.40;;;;;;5030924;28;20387;-70
2022/06/18 11:08:29;;;;;;;3.80;2.10;;;44.20;55.30;;;;;;5029549;28;20060;-69
2022/06/18 11:11:36;;;;;;;6.00;2.00;;;43.50;57.10;;;;;;5030288;28;20048;-69
2022/06/18 11:14:42;;;;;;;3.00;1.98;;;43.90;56.80;;;;;;5032767;28;20052;-70
2022/06/18 11:17:46;;;;;;;3.17;2.10;;;43.30;58.10;;;;;;5032720;28;20044;-69
2022/06/18 11:21:04;;;;;;;2.67;1.92;;;43.80;57.40;;;;;;5033928;28;20051;-69
2022/06/18 11:24:12;;;;;;;6.20;2.50;;;44.10;56.60;;;;;;5027718;28;20044;-70
2022/06/18 11:27:18;;;;;;;5.25;2.10;;;41.60;58.10;;;;;;5024547;28;20717;-70
2022/06/18 11:30:33;;;;;;;5.40;2.33;;;42.90;59.00;;;;;;5020622;28;20146;-68
2022/06/18 11:33:42;;;;;;;11.15;2.30;;;43.60;56.60;;;;;;5033142;28;20068;-70
2022/06/18 11:36:49;;;;;;;5.43;2.13;;;42.70;57.30;;;;;;5014477;28;20044;-69
2022/06/18 11:40:09;;;;;;;4.88;2.47;;;41.10;58.70;;;;;;5021726;28;20132;-70
2022/06/18 11:43:41;;;;;;;3.58;2.42;;;39.00;59.40;;;;;;5027082;28;20033;-69
2022/06/18 11:46:54;;;;;;;6.45;2.25;;;39.70;59.00;;;;;;5032138;28;20407;-69
2022/06/18 11:50:07;;;;;;;3.47;2.20;;;41.00;58.30;;;;;;5026348;28;20048;-69
2022/06/18 11:53:16;;;;;;;3.13;2.30;;;40.90;59.60;;;;;;5010388;28;20044;-70
2022/06/18 11:56:47;;;;;;;5.70;2.30;;;41.80;58.20;;;;;;5027998;28;20791;-69
2022/06/18 12:00:06;;;;;;;2.42;2.13;;;40.10;58.10;;;;;;5018245;28;20037;-68
2022/06/18 12:03:22;;;;;;;3.53;2.30;;;38.60;60.80;;;;;;5032938;28;20048;-68
2022/06/18 12:06:26;;;;;;;2.70;2.40;;;38.10;61.30;;;;;;5031766;28;20396;-68
2022/06/18 12:09:32;;;;;;;4.40;2.47;;;37.90;62.30;;;;;;5023379;28;20049;-68
2022/06/18 12:12:53;;;;;;;4.13;2.78;;;37.40;61.70;;;;;;5033176;28;20048;-70
2022/06/18 12:16:26;;;;;;;5.57;2.80;;;36.20;62.60;;;;;;5032482;28;20044;-70
2022/06/18 12:19:38;;;;;;;7.47;3.03;;;36.50;62.90;;;;;;5032055;28;20041;-68
2022/06/18 12:22:51;;;;;;;3.72;2.83;;;34.30;64.30;;;;;;5032469;28;20049;-68
2022/06/18 12:25:57;;;;;;;6.13;2.55;;;36.40;64.20;;;;;;5030779;28;20049;-69
2022/06/18 12:29:03;;;;;;;3.83;2.10;;;38.00;62.30;;;;;;5032246;28;20041;-69
2022/06/18 12:32:24;;;;;;;5.38;2.40;;;39.50;61.10;;;;;;5032030;28;20064;-68
2022/06/18 12:35:56;;;;;;;6.68;2.05;;;40.30;57.00;;;;;;5042818;28;20396;-69
2022/06/18 12:39:16;;;;;;;6.38;2.35;;;39.60;56.20;;;;;;5030994;28;20495;-69
2022/06/18 12:42:41;;;;;;;5.13;2.13;;;39.20;57.90;;;;;;5020284;28;20040;-68
2022/06/18 12:46:05;;;;;;;5.57;2.60;;;39.30;58.10;;;;;;5032227;28;20060;-68
2022/06/18 12:49:23;;;;;;;6.75;2.45;;;39.80;57.90;;;;;;5029285;28;20040;-69
2022/06/18 12:52:46;;;;;;;8.80;2.30;;;40.40;57.20;;;;;;5031841;28;20052;-68
2022/06/18 12:56:34;;;;;;;3.28;2.22;;;40.60;57.10;;;;;;5032097;28;20559;-71
2022/06/18 13:00:03;;;;;;;6.80;2.03;;;40.70;57.30;;;;;;5011983;28;20126;-70
2022/06/18 13:03:18;;;;;;;5.07;1.83;;;40.20;56.70;;;;;;5012045;28;20484;-68
2022/06/18 13:06:25;;;;;;;4.25;2.08;;;40.30;56.50;;;;;;5011439;28;20045;-71
2022/06/18 13:10:01;;;;;;;5.40;2.08;;;39.60;55.70;;;;;;5011326;28;20053;-68
2022/06/18 13:13:09;;;;;;;4.80;2.00;;;37.80;56.60;;;;;;5011781;28;20048;-69
2022/06/18 13:16:33;;;;;;;4.65;2.65;;;37.20;57.60;;;;;;5017227;28;20041;-69
2022/06/18 13:20:03;;;;;;;5.90;2.17;;;36.50;59.00;;;;;;5028351;28;20052;-70
2022/06/18 13:30:31;;;;;;;9.10;2.30;;;35.90;59.00;;;;;;5031247;28;20068;-67
2022/06/18 13:33:43;;;;;;;2.70;2.25;;;35.10;58.60;;;;;;5030954;28;20052;-68
2022/06/18 13:36:47;;;;;;;4.93;2.33;;;34.50;60.00;;;;;;5029903;28;20047;-68
2022/06/18 13:40:13;;;;;;;7.97;2.38;;;34.00;60.80;;;;;;5030486;28;20060;-69
2022/06/18 13:43:23;;;;;;;5.97;2.40;;;34.40;61.20;;;;;;5030220;28;20503;-69
2022/06/18 13:46:42;;;;;;;3.40;2.00;;;35.20;61.50;;;;;;5030216;28;20483;-68
2022/06/18 13:50:10;;;;;;;5.00;2.17;;;35.70;59.90;;;;;;5030121;28;20037;-68
2022/06/18 13:53:35;;;;;;;4.25;2.30;;;36.00;59.10;;;;;;5030339;28;20045;-68
2022/06/18 13:57:04;;;;;;;5.70;2.00;;;36.30;58.60;;;;;;5029625;28;20041;-68
2022/06/18 14:00:19;;;;;;;6.30;2.17;;;35.80;59.50;;;;;;5029350;28;20068;-69
2022/06/18 14:03:26;;;;;;;9.93;2.22;;;35.70;59.30;;;;;;5030194;28;20048;-68
2022/06/18 14:06:30;;;;;;;4.90;2.25;;;35.30;58.90;;;;;;5029634;28;20028;-69
2022/06/18 14:09:49;;;;;;;9.55;2.97;;;35.30;60.20;;;;;;5029853;28;20041;-70
2022/06/18 14:13:08;;;;;;;12.73;2.42;;;35.60;60.10;;;;;;5030491;28;20056;-68
2022/06/18 14:16:35;;;;;;;6.80;2.53;;;35.80;60.60;;;;;;5029862;28;20041;-68
2022/06/18 14:19:58;;;;;;;4.82;1.77;;;35.60;60.30;;;;;;5030007;28;20053;-69
2022/06/18 14:23:08;;;;;;;4.07;2.05;;;35.70;59.40;;;;;;5030202;28;20044;-68
2022/06/18 14:26:16;;;;;;;4.85;2.10;;;35.50;60.10;;;;;;5029244;28;20048;-68
2022/06/18 14:29:22;;;;;;;5.85;2.50;;;35.40;61.10;;;;;;5030030;28;20044;-68
2022/06/18 14:32:49;;;;;;;7.25;2.35;;;35.20;60.60;;;;;;5029165;28;20044;-69
2022/06/18 14:36:02;;;;;;;6.28;2.25;;;35.10;61.00;;;;;;5029760;28;20037;-69
2022/06/18 14:39:22;;;;;;;5.50;2.20;;;34.70;61.20;;;;;;5029989;28;20392;-69
2022/06/18 14:42:51;;;;;;;7.45;2.28;;;34.70;61.40;;;;;;5029412;28;20064;-69
2022/06/18 14:46:16;;;;;;;3.88;2.22;;;35.10;62.30;;;;;;5029936;28;20037;-69
2022/06/18 14:49:24;;;;;;;7.32;2.17;;;35.40;61.30;;;;;;5032538;28;20049;-68
2022/06/18 14:52:34;;;;;;;4.68;2.00;;;35.60;61.60;;;;;;5033683;28;20044;-69
2022/06/18 14:55:50;;;;;;;5.28;2.30;;;35.70;61.80;;;;;;5033689;28;20040;-68
2022/06/18 14:59:22;;;;;;;4.78;1.92;;;35.50;61.30;;;;;;5033326;28;20048;-68
2022/06/18 15:02:35;;;;;;;6.10;2.22;;;35.10;61.30;;;;;;5033568;28;20070;-69
2022/06/18 15:05:40;;;;;;;6.22;2.38;;;34.50;61.60;;;;;;5032860;28;20044;-68
2022/06/18 15:08:53;;;;;;;4.68;2.10;;;34.60;61.80;;;;;;5033599;28;20048;-73
2022/06/18 15:11:58;;;;;;;4.15;2.00;;;34.50;61.70;;;;;;5032668;28;20037;-69
2022/06/18 15:15:06;;;;;;;8.63;1.92;;;34.30;62.20;;;;;;5033215;28;20041;-69
2022/06/18 15:21:34;;;;;;;5.95;2.13;;;33.90;61.50;;;;;;5032822;28;20037;-68
2022/06/18 15:28:07;;;;;;;5.78;2.30;;;33.40;61.50;;;;;;5032420;28;20044;-68
2022/06/18 15:31:30;;;;;;;3.53;1.90;;;33.50;61.70;;;;;;5031920;28;20044;-70
2022/06/18 15:34:35;;;;;;;4.22;1.85;;;33.10;61.80;;;;;;5036147;28;20043;-67
2022/06/18 15:37:53;;;;;;;2.42;1.70;;;33.00;62.70;;;;;;5041780;28;20060;-67
2022/06/18 15:41:09;;;;;;;3.97;1.95;;;32.80;61.70;;;;;;5026142;28;20044;-67
2022/06/18 15:44:23;;;;;;;3.85;2.05;;;32.50;62.00;;;;;;5019651;28;20037;-68
2022/06/18 15:47:33;;;;;;;2.95;1.75;;;32.30;63.20;;;;;;5018878;28;20260;-67
2022/06/18 15:50:40;;;;;;;2.90;2.15;;;32.40;63.00;;;;;;5028484;28;20044;-67
2022/06/18 15:54:27;;;;;;;3.97;1.90;;;32.10;63.10;;;;;;5012200;28;20044;-66
2022/06/18 15:57:32;;;;;;;4.38;2.20;;;31.80;63.20;;;;;;5025499;28;20048;-67
2022/06/18 16:00:39;;;;;;;4.30;2.40;;;31.80;64.50;;;;;;5020542;28;20049;-68
2022/06/18 16:03:45;;;;;;;7.15;2.10;;;31.70;63.50;;;;;;5031478;28;20045;-66
2022/06/18 16:06:53;;;;;;;3.53;2.15;;;31.70;65.20;;;;;;5026412;28;20491;-68
2022/06/18 16:10:00;;;;;;;5.28;2.10;;;31.80;64.80;;;;;;5021531;28;20401;-68
2022/06/18 16:13:26;;;;;;;4.32;2.25;;;31.90;64.00;;;;;;5031853;28;20044;-68
2022/06/18 16:16:42;;;;;;;4.85;2.28;;;31.90;63.80;;;;;;5031791;28;20040;-68
2022/06/18 16:19:50;;;;;;;4.18;2.10;;;31.80;64.10;;;;;;5031900;28;20400;-68
2022/06/18 16:23:06;;;;;;;5.20;2.65;;;31.70;64.10;;;;;;5031317;28;20048;-68
2022/06/18 16:26:11;;;;;;;5.40;2.05;;;31.70;64.40;;;;;;5026406;28;20044;-68
2022/06/18 16:29:19;;;;;;;3.45;1.83;;;31.70;64.60;;;;;;5022788;28;20335;-68
2022/06/18 16:32:34;;;;;;;6.95;2.30;;;31.50;63.10;;;;;;5030172;28;20049;-70
2022/06/18 16:35:41;;;;;;;8.43;2.30;;;31.30;64.30;;;;;;5028286;28;20502;-68
2022/06/18 16:38:45;;;;;;;4.25;2.10;;;31.30;63.80;;;;;;5028676;28;20045;-67
2022/06/18 16:41:49;;;;;;;4.88;2.38;;;31.20;63.70;;;;;;5011888;28;20416;-68
2022/06/18 16:44:53;;;;;;;5.95;2.20;;;31.20;63.10;;;;;;5011855;28;20049;-68
2022/06/18 16:48:07;;;;;;;11.27;2.92;;;31.20;63.40;;;;;;5011469;28;20045;-68
2022/06/18 16:51:11;;;;;;;5.82;2.00;;;31.00;63.70;;;;;;5011306;28;20057;-67
2022/06/18 16:54:15;;;;;;;7.60;2.38;;;30.80;63.60;;;;;;5012374;28;20061;-67
2022/06/18 16:57:25;;;;;;;2.40;1.60;;;30.60;64.10;;;;;;5011242;28;20381;-68
2022/06/18 17:00:31;;;;;;;6.57;2.80;;;30.40;63.70;;;;;;5012177;28;20052;-68
2022/06/18 17:03:35;;;;;;;8.70;2.40;;;30.30;64.30;;;;;;5028133;28;20542;-68
2022/06/18 17:06:39;;;;;;;14.05;2.72;;;30.40;64.40;;;;;;5030751;28;20045;-67